Time;durP1;ratioP1;P1;durP2;ratioP2;P2;SDS_P1;SDS_P2;PMS_P1;PMS_P2;Temp;Humidity;BMP_temperature;BMP_pressure;BME280_temperature;BME280_humidity;BME280_pressure;Samples;Min_cycle;Max_cycle;Signal;HPM_P1;HPM_P2
2022/09/22 00:02:17;;;;;;;11.38;4.22;;;;;;;25.11;36.45;100658.50;5026329;28;20045;-72
2022/09/22 00:04:46;;;;;;;6.68;3.83;;;;;;;25.16;36.46;100653.91;5024673;28;20054;-71
2022/09/22 00:07:14;;;;;;;13.88;4.22;;;;;;;25.21;36.20;100654.66;5015636;28;20050;-74
2022/09/22 00:09:43;;;;;;;11.48;3.88;;;;;;;25.25;36.20;100653.63;5004673;28;20253;-73
2022/09/22 00:12:12;;;;;;;8.20;3.88;;;;;;;25.32;35.99;100653.44;5029317;28;20041;-71
2022/09/22 00:14:40;;;;;;;7.75;3.75;;;;;;;25.34;34.94;100648.97;5025302;28;20045;-72
2022/09/22 00:17:11;;;;;;;11.05;3.40;;;;;;;25.35;35.28;100656.84;5025630;28;20128;-72
2022/09/22 00:19:39;;;;;;;7.00;3.25;;;;;;;25.26;35.37;100659.78;5022071;28;20491;-74
2022/09/22 00:22:08;;;;;;;6.78;4.22;;;;;;;25.18;35.34;100654.75;5027805;28;20041;-74
2022/09/22 00:24:37;;;;;;;10.93;3.95;;;;;;;25.13;35.66;100656.66;5032017;28;20064;-72
2022/09/22 00:27:05;;;;;;;10.18;4.18;;;;;;;25.08;36.09;100656.81;5029545;28;20049;-74
2022/09/22 00:29:34;;;;;;;11.38;4.07;;;;;;;25.04;36.50;100660.47;5026273;28;20100;-74
2022/09/22 00:32:03;;;;;;;11.68;4.28;;;;;;;25.01;36.88;100649.09;5027924;28;20071;-73
2022/09/22 00:34:33;;;;;;;9.70;4.30;;;;;;;25.00;36.01;100656.19;5033540;28;20419;-74
2022/09/22 00:37:02;;;;;;;7.25;4.57;;;;;;;24.96;37.11;100648.38;5028351;28;20505;-73
2022/09/22 00:39:31;;;;;;;5.75;3.80;;;;;;;24.92;37.52;100652.03;5036118;28;20108;-72
2022/09/22 00:41:59;;;;;;;10.13;4.35;;;;;;;24.82;37.67;100657.63;5030487;28;20037;-71
2022/09/22 00:44:37;;;;;;;8.60;4.15;;;;;;;24.80;37.88;100664.75;5034111;28;20051;-72
2022/09/22 00:47:19;;;;;;;5.47;3.38;;;;;;;24.73;38.40;100672.94;5033933;28;20060;-72
2022/09/22 00:49:56;;;;;;;7.22;4.13;;;;;;;24.66;38.47;100670.47;5029366;28;20046;-73
2022/09/22 00:52:28;;;;;;;6.68;3.58;;;;;;;24.61;38.75;100669.72;5025440;28;20085;-71
2022/09/22 00:54:59;;;;;;;8.55;4.00;;;;;;;24.57;38.96;100669.88;5029974;28;20052;-71
2022/09/22 00:57:32;;;;;;;10.68;4.28;;;;;;;24.53;39.22;100670.88;5040704;28;20136;-73
2022/09/22 01:00:03;;;;;;;9.20;3.85;;;;;;;24.49;39.71;100669.22;5031305;28;20487;-72
2022/09/22 01:02:31;;;;;;;6.82;3.65;;;;;;;24.45;39.81;100671.94;5032208;28;20037;-73
2022/09/22 01:05:08;;;;;;;11.75;3.90;;;;;;;24.43;40.90;100681.69;5028117;28;20042;-72
2022/09/22 01:07:37;;;;;;;6.43;3.70;;;;;;;24.35;40.52;100678.41;5028940;28;20491;-72
2022/09/22 01:10:07;;;;;;;10.45;4.10;;;;;;;24.30;41.03;100675.00;5029562;28;20490;-72
2022/09/22 01:12:38;;;;;;;8.27;3.67;;;;;;;24.24;41.77;100677.84;5037568;28;20045;-72
2022/09/22 01:15:21;;;;;;;10.40;3.80;;;;;;;24.21;41.75;100677.91;5030608;28;20041;-72
2022/09/22 01:18:07;;;;;;;7.63;4.03;;;;;;;24.17;42.54;100684.22;5026728;28;20049;-73
2022/09/22 01:21:06;;;;;;;10.68;3.90;;;;;;;24.12;43.03;100675.53;5027961;28;20388;-72
2022/09/22 01:24:12;;;;;;;9.48;3.70;;;;;;;24.10;42.80;100672.06;5027537;28;20402;-73
2022/09/22 01:27:00;;;;;;;10.32;3.47;;;;;;;24.08;43.21;100681.84;5005745;28;20055;-74
2022/09/22 01:29:57;;;;;;;5.55;3.38;;;;;;;24.02;44.16;100683.72;5030512;28;20479;-72
2022/09/22 01:32:30;;;;;;;12.32;3.60;;;;;;;23.90;44.92;100691.13;5029524;28;20052;-74
2022/09/22 01:35:06;;;;;;;10.52;3.88;;;;;;;23.84;45.33;100694.78;5025491;28;20052;-71
2022/09/22 01:37:43;;;;;;;9.30;3.40;;;;;;;23.77;46.05;100690.56;5028070;28;20045;-76
2022/09/22 01:40:16;;;;;;;6.63;3.17;;;;;;;23.72;45.95;100697.72;5023474;28;20054;-74
2022/09/22 01:42:48;;;;;;;5.95;3.40;;;;;;;23.66;46.78;100700.53;5013755;28;20041;-71
2022/09/22 01:45:21;;;;;;;8.30;3.13;;;;;;;23.50;47.53;100708.84;5022004;28;20053;-70
2022/09/22 01:47:55;;;;;;;8.65;2.92;;;;;;;23.45;47.52;100705.44;5025728;28;20406;-70
2022/09/22 01:50:35;;;;;;;7.20;3.08;;;;;;;23.40;48.01;100713.47;5020240;28;20049;-71
2022/09/22 01:53:09;;;;;;;11.02;3.15;;;;;;;23.32;47.91;100714.53;5027265;28;20053;-71
2022/09/22 01:55:39;;;;;;;9.35;3.45;;;;;;;23.26;48.36;100706.78;5021652;28;20388;-70
2022/09/22 01:58:13;;;;;;;6.75;3.08;;;;;;;23.18;48.32;100712.22;5022062;28;20050;-70
2022/09/22 02:00:44;;;;;;;7.85;3.25;;;;;;;23.11;48.91;100714.19;5027106;28;20061;-69
2022/09/22 02:03:20;;;;;;;4.65;2.45;;;;;;;23.00;49.17;100703.84;5021660;28;20061;-69
2022/09/22 02:05:52;;;;;;;8.02;2.97;;;;;;;23.00;49.75;100721.47;5028893;28;20041;-69
2022/09/22 02:08:28;;;;;;;9.85;4.20;;;;;;;22.95;49.80;100718.00;5032941;28;20119;-70
2022/09/22 02:10:59;;;;;;;8.43;2.90;;;;;;;22.85;50.65;100722.63;5031896;28;20045;-69
2022/09/22 02:13:28;;;;;;;10.93;2.97;;;;;;;22.80;50.88;100737.69;5021656;28;20163;-68
2022/09/22 02:16:03;;;;;;;8.60;2.58;;;;;;;22.74;51.12;100730.75;5026151;28;20037;-70
2022/09/22 02:18:37;;;;;;;11.90;3.00;;;;;;;22.66;51.65;100737.97;5027052;28;20038;-74
2022/09/22 02:21:06;;;;;;;5.40;2.95;;;;;;;22.59;51.97;100736.38;5018357;28;20057;-71
2022/09/22 02:23:35;;;;;;;7.72;3.22;;;;;;;22.51;52.94;100735.66;5031278;28;20052;-70
2022/09/22 02:26:05;;;;;;;13.02;3.33;;;;;;;22.46;52.61;100742.78;5027763;28;20048;-73
2022/09/22 02:28:36;;;;;;;10.05;2.50;;;;;;;22.42;52.87;100749.88;5032563;28;20058;-72
2022/09/22 02:31:06;;;;;;;8.07;2.40;;;;;;;22.32;53.50;100748.34;5030234;28;20381;-71
2022/09/22 02:33:40;;;;;;;7.32;3.20;;;;;;;22.25;53.38;100746.72;5022468;28;20503;-71
2022/09/22 02:36:24;;;;;;;6.93;2.55;;;;;;;22.18;53.07;100749.44;5019528;28;20053;-70
2022/09/22 02:39:02;;;;;;;8.43;2.83;;;;;;;22.15;53.00;100753.88;5018396;28;20521;-71
2022/09/22 02:41:39;;;;;;;7.88;3.20;;;;;;;22.09;52.83;100760.13;5030903;28;20384;-72
2022/09/22 02:44:14;;;;;;;12.27;2.78;;;;;;;22.03;52.50;100760.22;5016222;28;20060;-72
2022/09/22 02:46:46;;;;;;;7.63;2.25;;;;;;;22.00;51.98;100769.97;5029065;28;20061;-72
2022/09/22 02:49:19;;;;;;;6.90;2.08;;;;;;;21.95;51.68;100773.56;5029649;28;20049;-72
2022/09/22 02:51:50;;;;;;;6.60;2.30;;;;;;;21.90;51.00;100772.78;5024319;28;20045;-71
2022/09/22 02:54:19;;;;;;;4.00;1.85;;;;;;;21.82;51.06;100776.41;5027852;28;20041;-70
2022/09/22 02:56:47;;;;;;;10.05;2.25;;;;;;;21.74;50.91;100779.19;5026421;28;20052;-72
2022/09/22 02:59:16;;;;;;;4.63;1.80;;;;;;;21.65;50.40;100790.75;5029086;28;20041;-72
2022/09/22 03:01:44;;;;;;;5.72;1.88;;;;;;;21.56;50.60;100790.88;5030696;28;20041;-71
2022/09/22 03:04:13;;;;;;;4.70;1.92;;;;;;;21.49;50.65;100800.63;5030613;28;20510;-74
2022/09/22 03:06:43;;;;;;;3.63;1.80;;;;;;;21.43;50.11;100805.97;5031144;28;20045;-71
2022/09/22 03:09:14;;;;;;;3.05;1.70;;;;;;;21.40;49.46;100811.28;5029166;28;20140;-71
2022/09/22 03:11:43;;;;;;;5.03;1.85;;;;;;;21.23;50.11;100811.47;5022105;28;20411;-72
2022/09/22 03:14:12;;;;;;;3.22;1.67;;;;;;;21.15;50.21;100817.75;5014924;28;20068;-72
2022/09/22 03:16:40;;;;;;;5.25;1.70;;;;;;;21.10;49.99;100818.69;5024401;28;20499;-72
2022/09/22 03:19:09;;;;;;;3.30;1.88;;;;;;;21.06;49.93;100816.97;5027902;28;20092;-71
2022/09/22 03:21:38;;;;;;;4.05;1.98;;;;;;;20.96;49.80;100823.25;5029552;28;20092;-70
2022/09/22 03:24:08;;;;;;;2.97;1.63;;;;;;;20.86;50.01;100821.59;5028890;28;20156;-70
2022/09/22 03:26:36;;;;;;;4.20;1.92;;;;;;;20.77;50.53;100817.31;5028623;28;20057;-72
2022/09/22 03:29:05;;;;;;;3.22;2.00;;;;;;;20.73;50.35;100822.63;5029468;28;20045;-71
2022/09/22 03:31:34;;;;;;;3.90;1.63;;;;;;;20.70;50.22;100824.41;5027664;28;20042;-73
2022/09/22 03:34:02;;;;;;;6.00;1.70;;;;;;;20.67;50.33;100823.59;5028891;28;20061;-70
2022/09/22 03:36:31;;;;;;;4.95;1.77;;;;;;;20.63;50.43;100833.25;5026857;28;20123;-70
2022/09/22 03:38:59;;;;;;;4.13;1.88;;;;;;;20.58;50.71;100835.06;5019208;28;20221;-73
2022/09/22 03:41:30;;;;;;;3.58;1.85;;;;;;;20.50;50.66;100839.47;5018687;28;20045;-72
2022/09/22 03:44:00;;;;;;;3.92;1.63;;;;;;;20.42;51.40;100839.56;5032664;28;20037;-73
2022/09/22 03:46:29;;;;;;;4.53;1.60;;;;;;;20.39;51.03;100847.50;5026377;28;20056;-70
2022/09/22 03:48:57;;;;;;;3.00;1.42;;;;;;;20.33;51.59;100850.16;5025319;28;20056;-72
2022/09/22 03:51:26;;;;;;;3.08;1.45;;;;;;;20.29;51.53;100851.97;5021207;28;20458;-70
2022/09/22 03:53:55;;;;;;;3.28;1.60;;;;;;;20.22;51.79;100854.66;5026015;28;20069;-71
2022/09/22 03:56:24;;;;;;;2.92;1.58;;;;;;;20.13;52.26;100857.34;5027367;28;20061;-71
2022/09/22 03:58:54;;;;;;;2.53;1.45;;;;;;;20.03;52.30;100862.69;5031320;28;20545;-74
2022/09/22 04:01:23;;;;;;;4.13;1.55;;;;;;;19.98;52.88;100858.38;5032563;28;20474;-71
2022/09/22 04:03:54;;;;;;;3.53;1.30;;;;;;;19.92;52.99;100855.78;5024933;28;20049;-70
2022/09/22 04:06:23;;;;;;;1.80;1.30;;;;;;;19.85;53.39;100863.69;5026208;28;20053;-71
2022/09/22 04:08:52;;;;;;;3.38;1.33;;;;;;;19.79;53.66;100871.63;5026108;28;20050;-70
2022/09/22 04:11:20;;;;;;;3.42;1.52;;;;;;;19.74;54.00;100881.25;5023616;28;20697;-70
2022/09/22 04:13:49;;;;;;;4.25;1.83;;;;;;;19.69;53.99;100872.56;5029862;28;20056;-70
2022/09/22 04:16:19;;;;;;;2.63;1.67;;;;;;;19.66;54.52;100877.78;5027900;28;20064;-73
2022/09/22 04:18:48;;;;;;;4.35;1.80;;;;;;;19.61;54.57;100875.19;5025076;28;20057;-71
2022/09/22 04:21:16;;;;;;;2.58;1.70;;;;;;;19.56;54.91;100876.97;5025545;28;20490;-70
2022/09/22 04:23:45;;;;;;;2.40;1.45;;;;;;;19.51;55.18;100877.88;5023555;28;20041;-70
2022/09/22 04:26:14;;;;;;;3.88;1.73;;;;;;;19.46;55.37;100886.63;5022828;28;20046;-71
2022/09/22 04:28:42;;;;;;;2.38;1.27;;;;;;;19.43;55.68;100891.91;5023487;28;20072;-71
2022/09/22 04:31:11;;;;;;;5.90;1.60;;;;;;;19.39;55.83;100895.41;5025335;28;20045;-71
2022/09/22 04:33:41;;;;;;;2.45;1.50;;;;;;;19.35;56.35;100898.94;5024877;28;20041;-70
2022/09/22 04:36:10;;;;;;;2.72;1.95;;;;;;;19.30;56.95;100902.47;5022170;28;20057;-71
2022/09/22 04:38:38;;;;;;;3.15;1.48;;;;;;;19.21;56.78;100909.47;5026089;28;20049;-69
2022/09/22 04:41:07;;;;;;;3.30;1.50;;;;;;;19.09;57.13;100900.81;5017969;28;20045;-71
2022/09/22 04:43:35;;;;;;;4.03;1.70;;;;;;;19.08;57.27;100906.91;5024650;28;20057;-71
2022/09/22 04:46:04;;;;;;;2.67;1.38;;;;;;;19.02;58.42;100916.53;5024349;28;20079;-69
2022/09/22 04:48:33;;;;;;;1.95;1.20;;;;;;;18.97;58.46;100918.31;5002124;28;20195;-70
2022/09/22 04:51:03;;;;;;;2.72;1.85;;;;;;;18.93;58.64;100921.81;4998709;28;20045;-69
2022/09/22 04:53:31;;;;;;;4.75;2.10;;;;;;;18.92;59.09;100919.19;4992877;28;20050;-71
2022/09/22 04:56:00;;;;;;;4.28;1.92;;;;;;;18.88;59.15;100926.19;5008093;28;20054;-71
2022/09/22 04:58:28;;;;;;;4.07;1.73;;;;;;;18.86;59.59;100927.09;5014325;28;20046;-69
2022/09/22 05:01:01;;;;;;;7.30;1.95;;;;;;;18.81;59.66;100935.81;5011550;28;20046;-71
2022/09/22 05:03:30;;;;;;;3.40;1.88;;;;;;;18.79;60.01;100939.31;5013769;28;20125;-71
2022/09/22 05:05:59;;;;;;;4.63;2.20;;;;;;;18.75;60.01;100942.78;5008543;28;20562;-69
2022/09/22 05:08:29;;;;;;;5.80;1.55;;;;;;;18.70;60.33;100940.16;5009468;28;20044;-68
2022/09/22 05:10:58;;;;;;;2.15;1.60;;;;;;;18.66;60.65;100942.78;5006163;28;20050;-69
2022/09/22 05:13:29;;;;;;;3.53;1.80;;;;;;;18.60;60.89;100938.44;5004278;28;20050;-68
2022/09/22 05:15:58;;;;;;;4.43;1.40;;;;;;;18.56;61.24;100948.03;5002135;28;20582;-66
2022/09/22 05:18:26;;;;;;;3.85;1.90;;;;;;;18.52;62.22;100951.53;5003691;28;20046;-68
2022/09/22 05:20:55;;;;;;;4.68;2.15;;;;;;;18.45;62.10;100944.53;5005729;28;20050;-67
2022/09/22 05:23:23;;;;;;;2.90;1.50;;;;;;;18.44;61.91;100963.78;4999058;28;20072;-67
2022/09/22 05:25:54;;;;;;;3.42;2.00;;;;;;;18.39;62.81;100966.38;5008513;28;20755;-67
2022/09/22 05:28:23;;;;;;;5.03;1.80;;;;;;;18.38;62.83;100979.47;5005571;28;20046;-67
2022/09/22 05:30:52;;;;;;;3.78;2.10;;;;;;;18.36;62.63;100979.47;5001460;28;20487;-67
2022/09/22 05:33:20;;;;;;;4.50;2.10;;;;;;;18.35;62.52;100977.72;5005751;28;20057;-67
2022/09/22 05:35:49;;;;;;;4.60;1.80;;;;;;;18.35;62.87;100992.59;5007919;28;20487;-67
2022/09/22 05:38:17;;;;;;;3.70;2.08;;;;;;;18.33;62.72;100996.94;4999566;28;20050;-68
2022/09/22 05:40:47;;;;;;;3.63;1.60;;;;;;;18.32;62.96;101006.53;5001576;28;20190;-66
2022/09/22 05:43:17;;;;;;;7.20;2.58;;;;;;;18.32;63.18;101005.66;5007999;28;20050;-67
2022/09/22 05:45:46;;;;;;;2.97;1.90;;;;;;;18.33;63.30;101007.44;5001437;28;20057;-67
2022/09/22 05:48:14;;;;;;;3.17;1.88;;;;;;;18.33;63.16;101007.44;5007162;27;20065;-68
2022/09/22 05:50:44;;;;;;;2.60;1.67;;;;;;;18.33;62.76;101012.66;5011510;28;20049;-68
2022/09/22 05:53:14;;;;;;;2.88;1.92;;;;;;;18.34;63.17;101009.16;5004943;28;20100;-67
2022/09/22 05:55:43;;;;;;;2.03;1.50;;;;;;;18.31;63.03;101014.41;5001518;28;20061;-67
2022/09/22 05:58:12;;;;;;;6.22;1.73;;;;;;;18.27;63.90;101018.75;5006406;28;20092;-67
2022/09/22 06:00:43;;;;;;;2.22;1.35;;;;;;;18.27;63.64;101015.25;5007105;28;20085;-67
2022/09/22 06:03:11;;;;;;;4.53;1.92;;;;;;;18.27;63.61;101020.50;5004080;28;20507;-68
2022/09/22 06:05:40;;;;;;;4.97;1.70;;;;;;;18.24;64.01;101020.50;5002906;28;20061;-67
2022/09/22 06:08:09;;;;;;;3.20;1.70;;;;;;;18.23;63.68;101026.59;4999160;28;20052;-67
2022/09/22 06:10:39;;;;;;;2.50;1.60;;;;;;;18.20;64.54;101025.72;5005374;28;20041;-68
2022/09/22 06:13:08;;;;;;;4.82;2.05;;;;;;;18.17;64.26;101028.34;4995141;28;20617;-67
2022/09/22 06:15:38;;;;;;;2.22;1.52;;;;;;;18.16;63.99;101037.06;5003341;28;20115;-67
2022/09/22 06:18:09;;;;;;;3.78;1.55;;;;;;;18.15;64.55;101035.31;4993741;28;20050;-67
2022/09/22 06:20:39;;;;;;;2.55;1.67;;;;;;;18.15;64.13;101044.91;5002986;28;20046;-66
2022/09/22 06:23:08;;;;;;;1.73;1.15;;;;;;;18.15;64.73;101043.16;5002301;28;20057;-68
2022/09/22 06:25:36;;;;;;;3.20;1.20;;;;;;;18.16;64.56;101042.31;5002763;28;20133;-67
2022/09/22 06:28:08;;;;;;;4.00;1.90;;;;;;;18.16;64.96;101041.41;5000942;28;20141;-68
2022/09/22 06:30:38;;;;;;;4.80;1.80;;;;;;;18.12;64.57;101045.78;4999166;28;20061;-67
2022/09/22 06:33:10;;;;;;;4.22;1.98;;;;;;;18.09;64.43;101043.13;5001782;28;20065;-67
2022/09/22 06:35:41;;;;;;;3.50;1.67;;;;;;;18.07;64.77;101042.25;5002268;28;20042;-68
2022/09/22 06:38:14;;;;;;;4.83;1.73;;;;;;;18.05;65.05;101037.88;5005333;28;20050;-67
2022/09/22 06:40:43;;;;;;;3.47;1.60;;;;;;;17.98;65.24;101037.88;5005255;28;20057;-67
2022/09/22 06:43:21;;;;;;;6.97;2.00;;;;;;;17.91;65.37;101041.34;5015161;28;20041;-68
2022/09/22 06:45:51;;;;;;;2.53;1.73;;;;;;;17.86;66.10;101042.19;5001615;28;20594;-69
2022/09/22 06:48:22;;;;;;;3.80;1.80;;;;;;;17.81;66.02;101039.56;5017018;28;20088;-70
2022/09/22 06:50:53;;;;;;;4.13;1.77;;;;;;;17.76;66.27;101039.50;5025868;28;20491;-69
2022/09/22 06:53:23;;;;;;;4.75;1.92;;;;;;;17.77;66.44;101033.41;5029250;28;20041;-69
2022/09/22 06:55:51;;;;;;;2.67;1.50;;;;;;;17.76;66.34;101031.66;5037109;28;20045;-69
2022/09/22 06:58:21;;;;;;;2.55;1.67;;;;;;;17.77;66.35;101033.41;5031516;28;20037;-69
2022/09/22 07:00:49;;;;;;;4.72;2.03;;;;;;;17.75;66.22;101035.16;5030395;28;20136;-69
2022/09/22 07:03:21;;;;;;;2.72;1.85;;;;;;;17.75;66.63;101035.16;5022466;28;20049;-69
2022/09/22 07:05:59;;;;;;;2.70;1.65;;;;;;;17.73;65.78;101036.88;5023063;28;20064;-69
2022/09/22 07:08:29;;;;;;;3.28;1.60;;;;;;;17.71;66.68;101043.84;5022913;28;20136;-68
2022/09/22 07:11:01;;;;;;;4.30;1.92;;;;;;;17.67;66.34;101042.06;5022972;28;20056;-69
2022/09/22 07:13:31;;;;;;;4.00;1.77;;;;;;;17.63;66.52;101048.16;5023379;28;20061;-69
2022/09/22 07:16:04;;;;;;;3.22;1.40;;;;;;;17.59;65.92;101049.00;5022994;28;20053;-69
2022/09/22 07:18:35;;;;;;;4.95;1.60;;;;;;;17.54;66.36;101050.72;5024724;28;20095;-69
2022/09/22 07:21:05;;;;;;;4.45;1.92;;;;;;;17.49;66.80;101058.53;5023015;28;20060;-69
2022/09/22 07:23:35;;;;;;;4.57;1.75;;;;;;;17.43;67.23;101057.63;5022527;28;20487;-69
2022/09/22 07:26:04;;;;;;;3.67;2.17;;;;;;;17.37;67.91;101046.28;5028963;28;20037;-69
2022/09/22 07:28:34;;;;;;;4.32;2.00;;;;;;;17.31;68.17;101048.84;5024089;28;20525;-70
2022/09/22 07:31:07;;;;;;;2.90;1.52;;;;;;;17.27;68.60;101047.09;5024104;28;20049;-69
2022/09/22 07:33:38;;;;;;;3.28;1.58;;;;;;;17.23;69.03;101055.78;5024506;28;20054;-68
2022/09/22 07:36:10;;;;;;;6.57;1.83;;;;;;;17.14;69.35;101050.47;5011053;28;20081;-69
2022/09/22 07:38:39;;;;;;;2.40;1.50;;;;;;;17.16;69.37;101060.06;5025716;28;20053;-69
2022/09/22 07:41:10;;;;;;;2.97;1.60;;;;;;;17.09;68.91;101044.34;5025375;28;20517;-69
2022/09/22 07:43:40;;;;;;;2.75;1.88;;;;;;;17.14;69.26;101058.31;5021782;28;20045;-69
2022/09/22 07:46:09;;;;;;;3.22;1.55;;;;;;;17.14;69.48;101063.56;5022570;28;20052;-68
2022/09/22 07:48:43;;;;;;;2.70;1.60;;;;;;;17.11;69.00;101067.03;5022482;28;20057;-68
2022/09/22 07:51:15;;;;;;;4.18;2.03;;;;;;;17.07;69.77;101065.25;5028094;28;20057;-68
2022/09/22 07:53:44;;;;;;;3.35;2.00;;;;;;;17.01;70.34;101072.16;5025436;28;20045;-68
2022/09/22 07:56:14;;;;;;;4.85;1.30;;;;;;;16.91;71.29;101069.47;5030588;28;20044;-68
2022/09/22 07:58:45;;;;;;;2.92;1.55;;;;;;;16.86;71.02;101060.72;5025825;28;20111;-69
2022/09/22 08:01:14;;;;;;;3.85;1.40;;;;;;;16.84;71.50;101069.41;5028877;28;20124;-69
2022/09/22 08:03:46;;;;;;;3.72;1.75;;;;;;;16.84;71.25;101067.66;5026153;28;20060;-68
2022/09/22 08:06:15;;;;;;;6.20;1.70;;;;;;;16.84;71.14;101072.91;5028713;28;20075;-68
2022/09/22 08:08:45;;;;;;;5.97;1.73;;;;;;;16.81;71.54;101065.00;5021742;28;20053;-67
2022/09/22 08:11:16;;;;;;;4.45;1.75;;;;;;;16.76;71.24;101070.16;5023147;28;20534;-68
2022/09/22 08:13:51;;;;;;;5.13;1.60;;;;;;;16.74;71.62;101065.78;5021114;28;20068;-68
2022/09/22 08:16:21;;;;;;;4.35;1.73;;;;;;;16.73;71.82;101066.66;5024365;28;20071;-68
2022/09/22 08:18:55;;;;;;;7.10;1.60;;;;;;;16.67;72.64;101064.84;5022634;28;20049;-69
2022/09/22 08:21:24;;;;;;;3.20;1.98;;;;;;;16.66;72.39;101064.84;5025980;28;20060;-68
2022/09/22 08:23:53;;;;;;;3.47;1.50;;;;;;;16.64;72.77;101069.19;5021889;28;20063;-69
2022/09/22 08:26:22;;;;;;;3.53;1.67;;;;;;;16.63;72.63;101073.53;5022222;28;20137;-68
2022/09/22 08:28:53;;;;;;;3.00;1.10;;;;;;;16.64;72.58;101074.41;5023643;28;20083;-69
2022/09/22 08:31:23;;;;;;;4.82;1.75;;;;;;;16.63;71.78;101070.03;5021600;28;20228;-68
2022/09/22 08:33:55;;;;;;;4.00;1.73;;;;;;;16.59;72.57;101070.88;5021380;28;20050;-68
2022/09/22 08:36:26;;;;;;;4.72;1.70;;;;;;;16.54;72.60;101073.47;5026496;28;20058;-68
2022/09/22 08:38:55;;;;;;;2.65;1.65;;;;;;;16.47;73.12;101077.75;5023862;28;20100;-68
2022/09/22 08:41:37;;;;;;;2.38;1.42;;;;;;;16.43;73.56;101077.69;5023336;28;20590;-67
2022/09/22 08:44:23;;;;;;;4.30;1.25;;;;;;;16.33;74.23;101079.28;5027902;28;20133;-68
2022/09/22 08:46:55;;;;;;;3.15;1.48;;;;;;;16.27;74.42;101080.13;5038278;28;20191;-68
2022/09/22 08:52:29;;;;;;;3.50;2.00;;;;;;;16.19;74.90;101096.56;5026116;28;20048;-69
2022/09/22 08:54:59;;;;;;;6.20;1.63;;;;;;;16.17;74.33;101096.56;5027990;28;20053;-68
2022/09/22 08:57:55;;;;;;;1.55;1.27;;;;;;;16.04;74.79;101098.13;5034240;28;20322;-69
2022/09/22 09:00:24;;;;;;;3.35;1.63;;;;;;;16.08;75.35;101110.38;5022129;28;20045;-68
2022/09/22 09:03:08;;;;;;;3.70;1.45;;;;;;;16.06;74.82;101109.47;5025859;28;20049;-69
2022/09/22 09:06:06;;;;;;;3.53;1.48;;;;;;;16.07;74.87;101113.81;5031798;28;20081;-69
2022/09/22 09:09:04;;;;;;;4.07;1.58;;;;;;;16.10;73.93;101119.09;5025559;28;20129;-70
2022/09/22 09:11:48;;;;;;;3.90;1.55;;;;;;;16.09;73.73;101117.31;5032852;28;20132;-69
2022/09/22 09:14:30;;;;;;;3.92;1.50;;;;;;;16.08;73.51;101115.59;5036115;28;20064;-69
2022/09/22 09:17:02;;;;;;;1.95;1.48;;;;;;;16.07;73.62;101123.38;5027996;28;20071;-69
2022/09/22 09:19:37;;;;;;;3.17;1.52;;;;;;;16.05;73.46;101119.88;5039579;28;20072;-69
2022/09/22 09:22:13;;;;;;;2.40;1.20;;;;;;;16.00;74.57;101122.44;5022596;28;20048;-69
2022/09/22 09:24:46;;;;;;;5.88;1.83;;;;;;;15.95;74.47;101118.88;5023544;28;20045;-69
2022/09/22 09:27:19;;;;;;;5.70;2.00;;;;;;;15.92;74.18;101118.84;5023231;28;20076;-69
2022/09/22 09:29:57;;;;;;;4.22;1.88;;;;;;;15.87;74.49;101121.41;5024887;28;20049;-69
2022/09/22 09:32:34;;;;;;;3.90;1.70;;;;;;;15.80;75.29;101118.66;5020150;28;20056;-67
2022/09/22 09:35:03;;;;;;;2.80;1.73;;;;;;;15.76;74.52;101119.47;5019735;28;20056;-68
2022/09/22 09:37:34;;;;;;;3.90;1.58;;;;;;;15.74;75.48;101124.69;5026170;28;20373;-68
2022/09/22 09:40:05;;;;;;;5.07;1.80;;;;;;;15.68;75.75;101125.44;5024343;28;20060;-68
2022/09/22 09:42:36;;;;;;;5.97;1.70;;;;;;;15.64;75.63;101130.59;5028191;28;20049;-68
2022/09/22 09:45:05;;;;;;;2.78;1.50;;;;;;;15.59;76.50;101134.88;5039760;28;20045;-69
2022/09/22 09:47:53;;;;;;;5.70;1.92;;;;;;;15.49;76.45;101126.91;5031369;28;20058;-68
2022/09/22 09:50:22;;;;;;;5.10;1.50;;;;;;;15.44;77.13;101141.59;5030011;28;20124;-68
2022/09/22 09:52:53;;;;;;;4.85;1.13;;;;;;;15.35;76.75;101127.56;5027370;28;20045;-67
2022/09/22 09:55:24;;;;;;;2.88;1.27;;;;;;;15.35;76.88;101137.97;5022160;28;20557;-68
2022/09/22 10:00:29;;;;;;;2.42;1.60;;;;;;;15.29;77.56;101144.81;5037672;28;20068;-68
2022/09/22 10:01:00;;;;;;;2.88;2.08;;;;;;;15.28;77.64;101140.47;5011942;28;20059;-68
2022/09/22 10:03:30;;;;;;;1.95;1.30;;;;;;;15.26;76.69;101143.91;5019876;28;20518;-68
2022/09/22 10:06:02;;;;;;;5.63;2.03;;;;;;;15.25;77.31;101144.75;5032582;28;20582;-69
2022/09/22 10:08:35;;;;;;;4.07;1.77;;;;;;;15.24;76.29;101143.00;5025138;28;20045;-68
2022/09/22 10:11:05;;;;;;;4.88;2.25;;;;;;;15.21;76.51;101143.84;5029319;28;20077;-68
2022/09/22 10:13:35;;;;;;;2.63;1.65;;;;;;;15.21;75.97;101151.66;5031887;28;20057;-68
2022/09/22 10:16:29;;;;;;;4.75;1.75;;;;;;;15.16;78.08;101144.59;5026360;28;20058;-68
2022/09/22 10:19:22;;;;;;;2.50;1.27;;;;;;;15.11;77.80;101147.13;5008411;28;20059;-70
2022/09/22 10:21:51;;;;;;;5.93;1.30;;;;;;;15.07;78.09;101151.44;5030238;28;20056;-69
2022/09/22 10:24:34;;;;;;;2.38;1.45;;;;;;;15.02;78.53;101160.00;5026103;28;20045;-68
2022/09/22 10:27:04;;;;;;;6.60;1.80;;;;;;;14.91;78.58;101148.50;5027755;28;20057;-68
2022/09/22 10:29:32;;;;;;;3.78;1.55;;;;;;;14.92;79.27;101161.56;5030635;28;20060;-68
2022/09/22 10:32:04;;;;;;;3.17;1.35;;;;;;;14.91;79.16;101156.31;5030715;28;20479;-68
2022/09/22 10:34:34;;;;;;;3.53;1.50;;;;;;;14.88;78.88;101163.22;5026153;28;20169;-68
2022/09/22 10:37:09;;;;;;;2.83;1.30;;;;;;;14.88;79.00;101170.16;5028641;28;20050;-69
2022/09/22 10:39:45;;;;;;;3.15;1.95;;;;;;;14.87;78.44;101171.91;5028559;28;20137;-68
2022/09/22 10:42:27;;;;;;;3.85;1.45;;;;;;;14.87;78.70;101174.50;5023690;28;20056;-67
2022/09/22 10:45:00;;;;;;;3.80;1.85;;;;;;;14.86;79.05;101172.75;5030612;28;20116;-67
2022/09/22 10:47:39;;;;;;;4.40;1.48;;;;;;;14.85;79.33;101171.00;5022167;28;20054;-67
2022/09/22 10:50:42;;;;;;;4.60;1.15;;;;;;;14.84;79.62;101174.47;5016057;28;20504;-67
2022/09/22 10:53:20;;;;;;;;;;;;;;;14.83;79.13;101184.84;5014477;28;20072;-68
2022/09/22 10:55:56;;;;;;;8.27;2.15;;;;;;;14.81;79.22;101186.53;5031958;28;19932;-69
2022/09/22 10:58:34;;;;;;;2.90;1.55;;;;;;;14.79;79.21;101190.84;5024465;28;20072;-69
2022/09/22 11:01:24;;;;;;;6.13;1.27;;;;;;;14.77;79.23;101188.19;5028398;28;20128;-68
2022/09/22 11:04:35;;;;;;;3.63;1.30;;;;;;;14.76;78.83;101185.59;5024918;28;20073;-69
2022/09/22 11:13:17;;;;;;;2.63;1.55;;;;;;;14.65;78.60;101199.25;4973295;28;20122;-69
2022/09/22 11:16:12;;;;;;;5.75;1.70;;;;;;;14.61;77.91;101196.56;5009763;28;20053;-69
2022/09/22 11:19:02;;;;;;;2.42;1.52;;;;;;;14.59;79.43;101193.03;5024491;28;20055;-68
2022/09/22 11:21:42;;;;;;;1.92;1.05;;;;;;;14.54;79.84;101205.06;5019600;28;20553;-69
2022/09/22 11:24:26;;;;;;;7.70;2.17;;;;;;;14.52;80.39;101207.63;5024167;28;20526;-68
2022/09/22 11:26:58;;;;;;;3.70;1.52;;;;;;;14.48;80.15;101203.22;5016781;28;20046;-66
2022/09/22 11:30:01;;;;;;;3.83;1.77;;;;;;;14.43;80.31;101202.22;5017928;28;20053;-67
2022/09/22 11:32:55;;;;;;;2.40;1.30;;;;;;;14.43;79.76;101208.34;5003550;28;20049;-68
2022/09/22 11:35:50;;;;;;;2.47;1.40;;;;;;;14.40;79.35;101200.44;5017150;28;20056;-69
2022/09/22 11:38:59;;;;;;;3.10;1.65;;;;;;;14.35;79.88;101198.63;5019833;28;20099;-67
2022/09/22 11:41:36;;;;;;;6.97;2.03;;;;;;;14.31;79.25;101202.84;5013629;28;20095;-68
2022/09/22 11:44:30;;;;;;;4.10;1.65;;;;;;;14.27;80.35;101214.06;5026577;28;20063;-68
2022/09/22 11:47:33;;;;;;;4.20;1.80;;;;;;;14.25;80.70;101220.97;5020449;28;20057;-68
2022/09/22 11:50:23;;;;;;;5.60;1.75;;;;;;;14.20;79.92;101219.97;4988551;28;20050;-68
2022/09/22 11:53:19;;;;;;;3.05;1.50;;;;;;;14.16;80.66;101212.97;5004494;28;20050;-68
2022/09/22 11:56:00;;;;;;;4.50;1.55;;;;;;;14.14;80.02;101220.72;5014899;28;20058;-68
2022/09/22 11:58:32;;;;;;;3.08;1.10;;;;;;;14.12;80.67;101226.75;5008962;28;20129;-68
2022/09/22 12:01:06;;;;;;;3.28;1.60;;;;;;;14.10;81.02;101218.03;5007771;28;20470;-67
2022/09/22 12:03:41;;;;;;;6.45;1.60;;;;;;;14.09;80.62;101218.84;5008059;28;20092;-67